<?xml version="1.0" encoding="UTF-8" standalone="no" ?>
<gpx xmlns="http://www.topografix.com/GPX/1/1" xmlns:xsi="http://www.w3.org/2001/XMLSchema-instance" xsi:schemaLocation="http://www.topografix.com/GPX/1/1 http://www.topografix.com/GPX/1/1/gpx.xsd" version="1.1" creator="VisuGPX - https://www.visugpx.com">
  <metadata>
    <name>La Chapelle-de-Guinchay Cyclisme</name>
    <desc><![CDATA[Col du Fût d'Avenas au départ de Ouroux]]></desc>
  </metadata>
  <trk>
    <name><![CDATA[La Chapelle-de-Guinchay Cyclisme]]></name>
    <trkseg>
      <trkpt lat="46.23038" lon="4.59417">
        <ele>455</ele>
        <time>2019-05-13T15:28:35.000Z</time>
      </trkpt>
      <trkpt lat="46.22999" lon="4.59448">
        <ele>454</ele>
        <time>2019-05-13T15:28:43.000Z</time>
      </trkpt>
      <trkpt lat="46.22978" lon="4.59471">
        <ele>454.20001220703</ele>
        <time>2019-05-13T15:28:48.000Z</time>
      </trkpt>
      <trkpt lat="46.22974" lon="4.59475">
        <ele>454.39999389648</ele>
        <time>2019-05-13T15:28:49.000Z</time>
      </trkpt>
      <trkpt lat="46.22952" lon="4.59495">
        <ele>455.20001220703</ele>
        <time>2019-05-13T15:28:54.000Z</time>
      </trkpt>
      <trkpt lat="46.22925" lon="4.59523">
        <ele>454.60000610352</ele>
        <time>2019-05-13T15:29:01.000Z</time>
      </trkpt>
      <trkpt lat="46.22913" lon="4.59534">
        <ele>454.20001220703</ele>
        <time>2019-05-13T15:29:04.000Z</time>
      </trkpt>
      <trkpt lat="46.22901" lon="4.59546">
        <ele>454.39999389648</ele>
        <time>2019-05-13T15:29:07.000Z</time>
      </trkpt>
      <trkpt lat="46.2289" lon="4.59557">
        <ele>454.60000610352</ele>
        <time>2019-05-13T15:29:10.000Z</time>
      </trkpt>
      <trkpt lat="46.22871" lon="4.59574">
        <ele>455.60000610352</ele>
        <time>2019-05-13T15:29:15.000Z</time>
      </trkpt>
      <trkpt lat="46.22858" lon="4.59583">
        <ele>456.39999389648</ele>
        <time>2019-05-13T15:29:18.000Z</time>
      </trkpt>
      <trkpt lat="46.22841" lon="4.59592">
        <ele>456.39999389648</ele>
        <time>2019-05-13T15:29:22.000Z</time>
      </trkpt>
      <trkpt lat="46.22829" lon="4.596">
        <ele>456.60000610352</ele>
        <time>2019-05-13T15:29:25.000Z</time>
      </trkpt>
      <trkpt lat="46.2281" lon="4.59616">
        <ele>456.39999389648</ele>
        <time>2019-05-13T15:29:30.000Z</time>
      </trkpt>
      <trkpt lat="46.22799" lon="4.59625">
        <ele>457.39999389648</ele>
        <time>2019-05-13T15:29:33.000Z</time>
      </trkpt>
      <trkpt lat="46.22796" lon="4.59628">
        <ele>457.79998779297</ele>
        <time>2019-05-13T15:29:34.000Z</time>
      </trkpt>
      <trkpt lat="46.22792" lon="4.59631">
        <ele>458.20001220703</ele>
        <time>2019-05-13T15:29:35.000Z</time>
      </trkpt>
      <trkpt lat="46.22785" lon="4.59636">
        <ele>459</ele>
        <time>2019-05-13T15:29:37.000Z</time>
      </trkpt>
      <trkpt lat="46.22773" lon="4.59642">
        <ele>460.20001220703</ele>
        <time>2019-05-13T15:29:40.000Z</time>
      </trkpt>
      <trkpt lat="46.22762" lon="4.59646">
        <ele>461.60000610352</ele>
        <time>2019-05-13T15:29:43.000Z</time>
      </trkpt>
      <trkpt lat="46.22746" lon="4.59651">
        <ele>462.39999389648</ele>
        <time>2019-05-13T15:29:47.000Z</time>
      </trkpt>
      <trkpt lat="46.22734" lon="4.59653">
        <ele>462.60000610352</ele>
        <time>2019-05-13T15:29:50.000Z</time>
      </trkpt>
      <trkpt lat="46.22704" lon="4.59659">
        <ele>462.60000610352</ele>
        <time>2019-05-13T15:29:57.000Z</time>
      </trkpt>
      <trkpt lat="46.22696" lon="4.59661">
        <ele>462.60000610352</ele>
        <time>2019-05-13T15:29:59.000Z</time>
      </trkpt>
      <trkpt lat="46.22659" lon="4.5967">
        <ele>462.39999389648</ele>
        <time>2019-05-13T15:30:08.000Z</time>
      </trkpt>
      <trkpt lat="46.22655" lon="4.59671">
        <ele>462.39999389648</ele>
        <time>2019-05-13T15:30:09.000Z</time>
      </trkpt>
      <trkpt lat="46.22622" lon="4.5968">
        <ele>463</ele>
        <time>2019-05-13T15:30:17.000Z</time>
      </trkpt>
      <trkpt lat="46.22617" lon="4.59682">
        <ele>463.20001220703</ele>
        <time>2019-05-13T15:30:18.000Z</time>
      </trkpt>
      <trkpt lat="46.22585" lon="4.59689">
        <ele>464.79998779297</ele>
        <time>2019-05-13T15:30:26.000Z</time>
      </trkpt>
      <trkpt lat="46.2258" lon="4.59689">
        <ele>465</ele>
        <time>2019-05-13T15:30:27.000Z</time>
      </trkpt>
      <trkpt lat="46.22548" lon="4.59689">
        <ele>467.39999389648</ele>
        <time>2019-05-13T15:30:35.000Z</time>
      </trkpt>
      <trkpt lat="46.2252" lon="4.59684">
        <ele>469.60000610352</ele>
        <time>2019-05-13T15:30:42.000Z</time>
      </trkpt>
      <trkpt lat="46.22512" lon="4.59681">
        <ele>470.39999389648</ele>
        <time>2019-05-13T15:30:44.000Z</time>
      </trkpt>
      <trkpt lat="46.22504" lon="4.5968">
        <ele>471</ele>
        <time>2019-05-13T15:30:46.000Z</time>
      </trkpt>
      <trkpt lat="46.22476" lon="4.59677">
        <ele>473</ele>
        <time>2019-05-13T15:30:53.000Z</time>
      </trkpt>
      <trkpt lat="46.22436" lon="4.59669">
        <ele>473.79998779297</ele>
        <time>2019-05-13T15:31:03.000Z</time>
      </trkpt>
      <trkpt lat="46.22408" lon="4.59665">
        <ele>474</ele>
        <time>2019-05-13T15:31:10.000Z</time>
      </trkpt>
      <trkpt lat="46.22404" lon="4.59665">
        <ele>474</ele>
        <time>2019-05-13T15:31:11.000Z</time>
      </trkpt>
      <trkpt lat="46.22392" lon="4.59663">
        <ele>474</ele>
        <time>2019-05-13T15:31:14.000Z</time>
      </trkpt>
      <trkpt lat="46.22369" lon="4.5966">
        <ele>474.20001220703</ele>
        <time>2019-05-13T15:31:20.000Z</time>
      </trkpt>
      <trkpt lat="46.22357" lon="4.59657">
        <ele>474.39999389648</ele>
        <time>2019-05-13T15:31:23.000Z</time>
      </trkpt>
      <trkpt lat="46.22337" lon="4.59654">
        <ele>475</ele>
        <time>2019-05-13T15:31:28.000Z</time>
      </trkpt>
      <trkpt lat="46.22309" lon="4.59648">
        <ele>476.39999389648</ele>
        <time>2019-05-13T15:31:35.000Z</time>
      </trkpt>
      <trkpt lat="46.22285" lon="4.59641">
        <ele>479.20001220703</ele>
        <time>2019-05-13T15:31:41.000Z</time>
      </trkpt>
      <trkpt lat="46.22261" lon="4.59631">
        <ele>482</ele>
        <time>2019-05-13T15:31:47.000Z</time>
      </trkpt>
      <trkpt lat="46.22249" lon="4.59626">
        <ele>483.60000610352</ele>
        <time>2019-05-13T15:31:50.000Z</time>
      </trkpt>
      <trkpt lat="46.22225" lon="4.59615">
        <ele>486.60000610352</ele>
        <time>2019-05-13T15:31:56.000Z</time>
      </trkpt>
      <trkpt lat="46.22205" lon="4.59607">
        <ele>488.20001220703</ele>
        <time>2019-05-13T15:32:01.000Z</time>
      </trkpt>
      <trkpt lat="46.22197" lon="4.59603">
        <ele>488.79998779297</ele>
        <time>2019-05-13T15:32:03.000Z</time>
      </trkpt>
      <trkpt lat="46.2218" lon="4.59597">
        <ele>490</ele>
        <time>2019-05-13T15:32:07.000Z</time>
      </trkpt>
      <trkpt lat="46.22168" lon="4.59591">
        <ele>491</ele>
        <time>2019-05-13T15:32:10.000Z</time>
      </trkpt>
      <trkpt lat="46.22131" lon="4.59577">
        <ele>493.20001220703</ele>
        <time>2019-05-13T15:32:19.000Z</time>
      </trkpt>
      <trkpt lat="46.22127" lon="4.59575">
        <ele>493.20001220703</ele>
        <time>2019-05-13T15:32:20.000Z</time>
      </trkpt>
      <trkpt lat="46.22099" lon="4.59565">
        <ele>493.79998779297</ele>
        <time>2019-05-13T15:32:27.000Z</time>
      </trkpt>
      <trkpt lat="46.22095" lon="4.59563">
        <ele>494</ele>
        <time>2019-05-13T15:32:28.000Z</time>
      </trkpt>
      <trkpt lat="46.22087" lon="4.59559">
        <ele>494.20001220703</ele>
        <time>2019-05-13T15:32:30.000Z</time>
      </trkpt>
      <trkpt lat="46.22071" lon="4.59553">
        <ele>495.39999389648</ele>
        <time>2019-05-13T15:32:34.000Z</time>
      </trkpt>
      <trkpt lat="46.22063" lon="4.5955">
        <ele>495.79998779297</ele>
        <time>2019-05-13T15:32:36.000Z</time>
      </trkpt>
      <trkpt lat="46.22055" lon="4.59546">
        <ele>496.39999389648</ele>
        <time>2019-05-13T15:32:38.000Z</time>
      </trkpt>
      <trkpt lat="46.22031" lon="4.59538">
        <ele>497.60000610352</ele>
        <time>2019-05-13T15:32:44.000Z</time>
      </trkpt>
      <trkpt lat="46.22007" lon="4.59534">
        <ele>498.39999389648</ele>
        <time>2019-05-13T15:32:50.000Z</time>
      </trkpt>
      <trkpt lat="46.21999" lon="4.59533">
        <ele>498.79998779297</ele>
        <time>2019-05-13T15:32:52.000Z</time>
      </trkpt>
      <trkpt lat="46.21974" lon="4.59533">
        <ele>499.20001220703</ele>
        <time>2019-05-13T15:32:59.000Z</time>
      </trkpt>
      <trkpt lat="46.2197" lon="4.59533">
        <ele>499.39999389648</ele>
        <time>2019-05-13T15:33:00.000Z</time>
      </trkpt>
      <trkpt lat="46.21944" lon="4.59538">
        <ele>500.60000610352</ele>
        <time>2019-05-13T15:33:07.000Z</time>
      </trkpt>
      <trkpt lat="46.21938" lon="4.5954">
        <ele>501</ele>
        <time>2019-05-13T15:33:09.000Z</time>
      </trkpt>
      <trkpt lat="46.21919" lon="4.59545">
        <ele>501.79998779297</ele>
        <time>2019-05-13T15:33:14.000Z</time>
      </trkpt>
      <trkpt lat="46.21916" lon="4.59545">
        <ele>502</ele>
        <time>2019-05-13T15:33:15.000Z</time>
      </trkpt>
      <trkpt lat="46.21889" lon="4.59554">
        <ele>500.60000610352</ele>
        <time>2019-05-13T15:33:23.000Z</time>
      </trkpt>
      <trkpt lat="46.21858" lon="4.59567">
        <ele>498.20001220703</ele>
        <time>2019-05-13T15:33:32.000Z</time>
      </trkpt>
      <trkpt lat="46.21852" lon="4.59571">
        <ele>497.39999389648</ele>
        <time>2019-05-13T15:33:34.000Z</time>
      </trkpt>
      <trkpt lat="46.21845" lon="4.59574">
        <ele>497</ele>
        <time>2019-05-13T15:33:36.000Z</time>
      </trkpt>
      <trkpt lat="46.21832" lon="4.59585">
        <ele>495.60000610352</ele>
        <time>2019-05-13T15:33:40.000Z</time>
      </trkpt>
      <trkpt lat="46.21814" lon="4.596">
        <ele>493.39999389648</ele>
        <time>2019-05-13T15:33:46.000Z</time>
      </trkpt>
      <trkpt lat="46.21805" lon="4.59609">
        <ele>492.60000610352</ele>
        <time>2019-05-13T15:33:49.000Z</time>
      </trkpt>
      <trkpt lat="46.21799" lon="4.59615">
        <ele>492.39999389648</ele>
        <time>2019-05-13T15:33:51.000Z</time>
      </trkpt>
      <trkpt lat="46.21788" lon="4.59628">
        <ele>493.20001220703</ele>
        <time>2019-05-13T15:33:55.000Z</time>
      </trkpt>
      <trkpt lat="46.21785" lon="4.59631">
        <ele>493.60000610352</ele>
        <time>2019-05-13T15:33:56.000Z</time>
      </trkpt>
      <trkpt lat="46.21773" lon="4.59643">
        <ele>495.20001220703</ele>
        <time>2019-05-13T15:34:00.000Z</time>
      </trkpt>
      <trkpt lat="46.21762" lon="4.59655">
        <ele>496.20001220703</ele>
        <time>2019-05-13T15:34:04.000Z</time>
      </trkpt>
      <trkpt lat="46.21756" lon="4.59661">
        <ele>495.79998779297</ele>
        <time>2019-05-13T15:34:06.000Z</time>
      </trkpt>
      <trkpt lat="46.21738" lon="4.59674">
        <ele>495.20001220703</ele>
        <time>2019-05-13T15:34:11.000Z</time>
      </trkpt>
      <trkpt lat="46.21731" lon="4.59678">
        <ele>495</ele>
        <time>2019-05-13T15:34:13.000Z</time>
      </trkpt>
      <trkpt lat="46.21713" lon="4.59686">
        <ele>493.79998779297</ele>
        <time>2019-05-13T15:34:18.000Z</time>
      </trkpt>
      <trkpt lat="46.21709" lon="4.59687">
        <ele>493.60000610352</ele>
        <time>2019-05-13T15:34:19.000Z</time>
      </trkpt>
      <trkpt lat="46.21676" lon="4.59697">
        <ele>491.79998779297</ele>
        <time>2019-05-13T15:34:28.000Z</time>
      </trkpt>
      <trkpt lat="46.21658" lon="4.59703">
        <ele>491</ele>
        <time>2019-05-13T15:34:33.000Z</time>
      </trkpt>
      <trkpt lat="46.21648" lon="4.59708">
        <ele>491</ele>
        <time>2019-05-13T15:34:36.000Z</time>
      </trkpt>
      <trkpt lat="46.2163" lon="4.59718">
        <ele>493.20001220703</ele>
        <time>2019-05-13T15:34:41.000Z</time>
      </trkpt>
      <trkpt lat="46.21617" lon="4.59727">
        <ele>495.20001220703</ele>
        <time>2019-05-13T15:34:45.000Z</time>
      </trkpt>
      <trkpt lat="46.21594" lon="4.59741">
        <ele>498</ele>
        <time>2019-05-13T15:34:52.000Z</time>
      </trkpt>
      <trkpt lat="46.21575" lon="4.59755">
        <ele>498.79998779297</ele>
        <time>2019-05-13T15:34:58.000Z</time>
      </trkpt>
      <trkpt lat="46.21566" lon="4.59761">
        <ele>499.39999389648</ele>
        <time>2019-05-13T15:35:01.000Z</time>
      </trkpt>
      <trkpt lat="46.2154" lon="4.59778">
        <ele>501.60000610352</ele>
        <time>2019-05-13T15:35:09.000Z</time>
      </trkpt>
      <trkpt lat="46.21537" lon="4.5978">
        <ele>501.39999389648</ele>
        <time>2019-05-13T15:35:10.000Z</time>
      </trkpt>
      <trkpt lat="46.21512" lon="4.59798">
        <ele>502.60000610352</ele>
        <time>2019-05-13T15:35:18.000Z</time>
      </trkpt>
      <trkpt lat="46.21502" lon="4.59803">
        <ele>503.20001220703</ele>
        <time>2019-05-13T15:35:21.000Z</time>
      </trkpt>
      <trkpt lat="46.21487" lon="4.59814">
        <ele>502.39999389648</ele>
        <time>2019-05-13T15:35:26.000Z</time>
      </trkpt>
      <trkpt lat="46.21466" lon="4.5983">
        <ele>500.60000610352</ele>
        <time>2019-05-13T15:35:33.000Z</time>
      </trkpt>
      <trkpt lat="46.21463" lon="4.59833">
        <ele>500.39999389648</ele>
        <time>2019-05-13T15:35:34.000Z</time>
      </trkpt>
      <trkpt lat="46.21449" lon="4.59847">
        <ele>499.79998779297</ele>
        <time>2019-05-13T15:35:39.000Z</time>
      </trkpt>
      <trkpt lat="46.21443" lon="4.59854">
        <ele>500</ele>
        <time>2019-05-13T15:35:41.000Z</time>
      </trkpt>
      <trkpt lat="46.21436" lon="4.59865">
        <ele>500.39999389648</ele>
        <time>2019-05-13T15:35:44.000Z</time>
      </trkpt>
      <trkpt lat="46.21423" lon="4.59885">
        <ele>502.60000610352</ele>
        <time>2019-05-13T15:35:49.000Z</time>
      </trkpt>
      <trkpt lat="46.21407" lon="4.59908">
        <ele>502.39999389648</ele>
        <time>2019-05-13T15:35:55.000Z</time>
      </trkpt>
      <trkpt lat="46.2138" lon="4.59936">
        <ele>501.20001220703</ele>
        <time>2019-05-13T15:36:04.000Z</time>
      </trkpt>
      <trkpt lat="46.21356" lon="4.59953">
        <ele>502.39999389648</ele>
        <time>2019-05-13T15:36:11.000Z</time>
      </trkpt>
      <trkpt lat="46.21349" lon="4.59957">
        <ele>503</ele>
        <time>2019-05-13T15:36:13.000Z</time>
      </trkpt>
      <trkpt lat="46.21328" lon="4.5997">
        <ele>504.60000610352</ele>
        <time>2019-05-13T15:36:19.000Z</time>
      </trkpt>
      <trkpt lat="46.21324" lon="4.59972">
        <ele>504.39999389648</ele>
        <time>2019-05-13T15:36:20.000Z</time>
      </trkpt>
      <trkpt lat="46.21304" lon="4.59985">
        <ele>504</ele>
        <time>2019-05-13T15:36:26.000Z</time>
      </trkpt>
      <trkpt lat="46.21288" lon="4.59994">
        <ele>503.20001220703</ele>
        <time>2019-05-13T15:36:31.000Z</time>
      </trkpt>
      <trkpt lat="46.21264" lon="4.60008">
        <ele>502.79998779297</ele>
        <time>2019-05-13T15:36:38.000Z</time>
      </trkpt>
      <trkpt lat="46.21258" lon="4.60012">
        <ele>502.79998779297</ele>
        <time>2019-05-13T15:36:40.000Z</time>
      </trkpt>
      <trkpt lat="46.21236" lon="4.60026">
        <ele>503</ele>
        <time>2019-05-13T15:36:47.000Z</time>
      </trkpt>
      <trkpt lat="46.2123" lon="4.6003">
        <ele>503</ele>
        <time>2019-05-13T15:36:49.000Z</time>
      </trkpt>
      <trkpt lat="46.21218" lon="4.60036">
        <ele>503.60000610352</ele>
        <time>2019-05-13T15:36:53.000Z</time>
      </trkpt>
      <trkpt lat="46.21215" lon="4.60037">
        <ele>503.79998779297</ele>
        <time>2019-05-13T15:36:54.000Z</time>
      </trkpt>
      <trkpt lat="46.21205" lon="4.60044">
        <ele>504.60000610352</ele>
        <time>2019-05-13T15:36:58.000Z</time>
      </trkpt>
      <trkpt lat="46.21196" lon="4.60046">
        <ele>505.20001220703</ele>
        <time>2019-05-13T15:37:01.000Z</time>
      </trkpt>
      <trkpt lat="46.21194" lon="4.60047">
        <ele>505.39999389648</ele>
        <time>2019-05-13T15:37:02.000Z</time>
      </trkpt>
      <trkpt lat="46.21177" lon="4.6005">
        <ele>506.39999389648</ele>
        <time>2019-05-13T15:37:08.000Z</time>
      </trkpt>
      <trkpt lat="46.21175" lon="4.60049">
        <ele>506.60000610352</ele>
        <time>2019-05-13T15:37:09.000Z</time>
      </trkpt>
      <trkpt lat="46.21156" lon="4.60048">
        <ele>507.79998779297</ele>
        <time>2019-05-13T15:37:16.000Z</time>
      </trkpt>
      <trkpt lat="46.21153" lon="4.60048">
        <ele>508.20001220703</ele>
        <time>2019-05-13T15:37:17.000Z</time>
      </trkpt>
      <trkpt lat="46.21141" lon="4.60042">
        <ele>509</ele>
        <time>2019-05-13T15:37:22.000Z</time>
      </trkpt>
      <trkpt lat="46.21136" lon="4.60039">
        <ele>509.39999389648</ele>
        <time>2019-05-13T15:37:24.000Z</time>
      </trkpt>
      <trkpt lat="46.21132" lon="4.60036">
        <ele>509.60000610352</ele>
        <time>2019-05-13T15:37:26.000Z</time>
      </trkpt>
      <trkpt lat="46.21123" lon="4.60031">
        <ele>510.20001220703</ele>
        <time>2019-05-13T15:37:30.000Z</time>
      </trkpt>
      <trkpt lat="46.21108" lon="4.60019">
        <ele>510.79998779297</ele>
        <time>2019-05-13T15:37:37.000Z</time>
      </trkpt>
      <trkpt lat="46.21106" lon="4.60017">
        <ele>510.79998779297</ele>
        <time>2019-05-13T15:37:38.000Z</time>
      </trkpt>
      <trkpt lat="46.21092" lon="4.60004">
        <ele>511.60000610352</ele>
        <time>2019-05-13T15:37:45.000Z</time>
      </trkpt>
      <trkpt lat="46.2108" lon="4.59994">
        <ele>512</ele>
        <time>2019-05-13T15:37:51.000Z</time>
      </trkpt>
      <trkpt lat="46.21076" lon="4.5999">
        <ele>512.20001220703</ele>
        <time>2019-05-13T15:37:53.000Z</time>
      </trkpt>
      <trkpt lat="46.21067" lon="4.59985">
        <ele>512.79998779297</ele>
        <time>2019-05-13T15:37:57.000Z</time>
      </trkpt>
      <trkpt lat="46.21059" lon="4.59981">
        <ele>513.20001220703</ele>
        <time>2019-05-13T15:38:01.000Z</time>
      </trkpt>
      <trkpt lat="46.2105" lon="4.59978">
        <ele>513.59997558594</ele>
        <time>2019-05-13T15:38:05.000Z</time>
      </trkpt>
      <trkpt lat="46.21037" lon="4.59976">
        <ele>514</ele>
        <time>2019-05-13T15:38:11.000Z</time>
      </trkpt>
      <trkpt lat="46.21035" lon="4.59976">
        <ele>514</ele>
        <time>2019-05-13T15:38:12.000Z</time>
      </trkpt>
      <trkpt lat="46.2102" lon="4.59979">
        <ele>515</ele>
        <time>2019-05-13T15:38:19.000Z</time>
      </trkpt>
      <trkpt lat="46.21018" lon="4.5998">
        <ele>515.20001220703</ele>
        <time>2019-05-13T15:38:20.000Z</time>
      </trkpt>
      <trkpt lat="46.21004" lon="4.59985">
        <ele>516.59997558594</ele>
        <time>2019-05-13T15:38:26.000Z</time>
      </trkpt>
      <trkpt lat="46.20999" lon="4.59987">
        <ele>517.40002441406</ele>
        <time>2019-05-13T15:38:28.000Z</time>
      </trkpt>
      <trkpt lat="46.20991" lon="4.59993">
        <ele>519</ele>
        <time>2019-05-13T15:38:32.000Z</time>
      </trkpt>
      <trkpt lat="46.20984" lon="4.6">
        <ele>520.79998779297</ele>
        <time>2019-05-13T15:38:36.000Z</time>
      </trkpt>
      <trkpt lat="46.20974" lon="4.6001">
        <ele>523</ele>
        <time>2019-05-13T15:38:41.000Z</time>
      </trkpt>
      <trkpt lat="46.20966" lon="4.60022">
        <ele>524.79998779297</ele>
        <time>2019-05-13T15:38:46.000Z</time>
      </trkpt>
      <trkpt lat="46.20957" lon="4.60036">
        <ele>525.79998779297</ele>
        <time>2019-05-13T15:38:52.000Z</time>
      </trkpt>
      <trkpt lat="46.20948" lon="4.6005">
        <ele>528</ele>
        <time>2019-05-13T15:38:58.000Z</time>
      </trkpt>
      <trkpt lat="46.20947" lon="4.60052">
        <ele>528.40002441406</ele>
        <time>2019-05-13T15:38:59.000Z</time>
      </trkpt>
      <trkpt lat="46.20942" lon="4.6006">
        <ele>529.59997558594</ele>
        <time>2019-05-13T15:39:02.000Z</time>
      </trkpt>
      <trkpt lat="46.20937" lon="4.60068">
        <ele>531</ele>
        <time>2019-05-13T15:39:05.000Z</time>
      </trkpt>
      <trkpt lat="46.20935" lon="4.60074">
        <ele>531.79998779297</ele>
        <time>2019-05-13T15:39:07.000Z</time>
      </trkpt>
      <trkpt lat="46.2093" lon="4.60081">
        <ele>532.40002441406</ele>
        <time>2019-05-13T15:39:10.000Z</time>
      </trkpt>
      <trkpt lat="46.20924" lon="4.6009">
        <ele>533</ele>
        <time>2019-05-13T15:39:14.000Z</time>
      </trkpt>
      <trkpt lat="46.20922" lon="4.60097">
        <ele>533.59997558594</ele>
        <time>2019-05-13T15:39:16.000Z</time>
      </trkpt>
      <trkpt lat="46.20916" lon="4.60106">
        <ele>534.20001220703</ele>
        <time>2019-05-13T15:39:20.000Z</time>
      </trkpt>
      <trkpt lat="46.20915" lon="4.60108">
        <ele>534.40002441406</ele>
        <time>2019-05-13T15:39:21.000Z</time>
      </trkpt>
      <trkpt lat="46.20911" lon="4.60115">
        <ele>535</ele>
        <time>2019-05-13T15:39:24.000Z</time>
      </trkpt>
      <trkpt lat="46.20905" lon="4.60125">
        <ele>536.20001220703</ele>
        <time>2019-05-13T15:39:28.000Z</time>
      </trkpt>
      <trkpt lat="46.20894" lon="4.60144">
        <ele>539</ele>
        <time>2019-05-13T15:39:36.000Z</time>
      </trkpt>
      <trkpt lat="46.20892" lon="4.60147">
        <ele>539.40002441406</ele>
        <time>2019-05-13T15:39:37.000Z</time>
      </trkpt>
      <trkpt lat="46.20887" lon="4.60154">
        <ele>541</ele>
        <time>2019-05-13T15:39:40.000Z</time>
      </trkpt>
      <trkpt lat="46.20879" lon="4.60164">
        <ele>543</ele>
        <time>2019-05-13T15:39:45.000Z</time>
      </trkpt>
      <trkpt lat="46.20871" lon="4.60175">
        <ele>545</ele>
        <time>2019-05-13T15:39:50.000Z</time>
      </trkpt>
      <trkpt lat="46.20866" lon="4.60177">
        <ele>545.20001220703</ele>
        <time>2019-05-13T15:39:52.000Z</time>
      </trkpt>
      <trkpt lat="46.20855" lon="4.60184">
        <ele>545.20001220703</ele>
        <time>2019-05-13T15:39:58.000Z</time>
      </trkpt>
      <trkpt lat="46.20848" lon="4.60186">
        <ele>544.79998779297</ele>
        <time>2019-05-13T15:40:01.000Z</time>
      </trkpt>
      <trkpt lat="46.20839" lon="4.60187">
        <ele>544.40002441406</ele>
        <time>2019-05-13T15:40:05.000Z</time>
      </trkpt>
      <trkpt lat="46.20833" lon="4.60186">
        <ele>543.79998779297</ele>
        <time>2019-05-13T15:40:08.000Z</time>
      </trkpt>
      <trkpt lat="46.20827" lon="4.60185">
        <ele>543.40002441406</ele>
        <time>2019-05-13T15:40:11.000Z</time>
      </trkpt>
      <trkpt lat="46.2082" lon="4.60183">
        <ele>542.59997558594</ele>
        <time>2019-05-13T15:40:14.000Z</time>
      </trkpt>
      <trkpt lat="46.20816" lon="4.60181">
        <ele>542</ele>
        <time>2019-05-13T15:40:16.000Z</time>
      </trkpt>
      <trkpt lat="46.20806" lon="4.60176">
        <ele>542.59997558594</ele>
        <time>2019-05-13T15:40:21.000Z</time>
      </trkpt>
      <trkpt lat="46.20801" lon="4.60171">
        <ele>543.20001220703</ele>
        <time>2019-05-13T15:40:24.000Z</time>
      </trkpt>
      <trkpt lat="46.20799" lon="4.6017">
        <ele>543.40002441406</ele>
        <time>2019-05-13T15:40:25.000Z</time>
      </trkpt>
      <trkpt lat="46.2079" lon="4.6016">
        <ele>544.20001220703</ele>
        <time>2019-05-13T15:40:31.000Z</time>
      </trkpt>
      <trkpt lat="46.20788" lon="4.60158">
        <ele>544.40002441406</ele>
        <time>2019-05-13T15:40:32.000Z</time>
      </trkpt>
      <trkpt lat="46.20782" lon="4.60149">
        <ele>544.59997558594</ele>
        <time>2019-05-13T15:40:36.000Z</time>
      </trkpt>
      <trkpt lat="46.20778" lon="4.60142">
        <ele>544.79998779297</ele>
        <time>2019-05-13T15:40:39.000Z</time>
      </trkpt>
      <trkpt lat="46.20774" lon="4.60136">
        <ele>545.20001220703</ele>
        <time>2019-05-13T15:40:42.000Z</time>
      </trkpt>
      <trkpt lat="46.20769" lon="4.6013">
        <ele>545.59997558594</ele>
        <time>2019-05-13T15:40:45.000Z</time>
      </trkpt>
      <trkpt lat="46.20767" lon="4.60129">
        <ele>545.79998779297</ele>
        <time>2019-05-13T15:40:46.000Z</time>
      </trkpt>
      <trkpt lat="46.20762" lon="4.60123">
        <ele>546.20001220703</ele>
        <time>2019-05-13T15:40:49.000Z</time>
      </trkpt>
      <trkpt lat="46.20754" lon="4.60116">
        <ele>547</ele>
        <time>2019-05-13T15:40:53.000Z</time>
      </trkpt>
      <trkpt lat="46.20743" lon="4.60107">
        <ele>547.40002441406</ele>
        <time>2019-05-13T15:40:59.000Z</time>
      </trkpt>
      <trkpt lat="46.20731" lon="4.60101">
        <ele>548.59997558594</ele>
        <time>2019-05-13T15:41:05.000Z</time>
      </trkpt>
      <trkpt lat="46.20729" lon="4.601">
        <ele>548.79998779297</ele>
        <time>2019-05-13T15:41:06.000Z</time>
      </trkpt>
      <trkpt lat="46.20723" lon="4.60096">
        <ele>549</ele>
        <time>2019-05-13T15:41:09.000Z</time>
      </trkpt>
      <trkpt lat="46.20712" lon="4.60091">
        <ele>549.40002441406</ele>
        <time>2019-05-13T15:41:14.000Z</time>
      </trkpt>
      <trkpt lat="46.20706" lon="4.60088">
        <ele>549.59997558594</ele>
        <time>2019-05-13T15:41:17.000Z</time>
      </trkpt>
      <trkpt lat="46.20699" lon="4.60085">
        <ele>550</ele>
        <time>2019-05-13T15:41:20.000Z</time>
      </trkpt>
      <trkpt lat="46.20695" lon="4.60083">
        <ele>550.20001220703</ele>
        <time>2019-05-13T15:41:22.000Z</time>
      </trkpt>
      <trkpt lat="46.20684" lon="4.60078">
        <ele>550.79998779297</ele>
        <time>2019-05-13T15:41:27.000Z</time>
      </trkpt>
      <trkpt lat="46.2068" lon="4.60076">
        <ele>551.20001220703</ele>
        <time>2019-05-13T15:41:29.000Z</time>
      </trkpt>
      <trkpt lat="46.20675" lon="4.60073">
        <ele>551.40002441406</ele>
        <time>2019-05-13T15:41:31.000Z</time>
      </trkpt>
      <trkpt lat="46.20662" lon="4.60069">
        <ele>553</ele>
        <time>2019-05-13T15:41:37.000Z</time>
      </trkpt>
      <trkpt lat="46.2064" lon="4.60065">
        <ele>556</ele>
        <time>2019-05-13T15:41:46.000Z</time>
      </trkpt>
      <trkpt lat="46.20632" lon="4.60062">
        <ele>556.59997558594</ele>
        <time>2019-05-13T15:41:50.000Z</time>
      </trkpt>
      <trkpt lat="46.20621" lon="4.60059">
        <ele>557.40002441406</ele>
        <time>2019-05-13T15:41:55.000Z</time>
      </trkpt>
      <trkpt lat="46.20619" lon="4.60059">
        <ele>557.59997558594</ele>
        <time>2019-05-13T15:41:56.000Z</time>
      </trkpt>
      <trkpt lat="46.20605" lon="4.60055">
        <ele>558.59997558594</ele>
        <time>2019-05-13T15:42:02.000Z</time>
      </trkpt>
      <trkpt lat="46.20602" lon="4.60054">
        <ele>559</ele>
        <time>2019-05-13T15:42:03.000Z</time>
      </trkpt>
      <trkpt lat="46.20586" lon="4.60051">
        <ele>560.59997558594</ele>
        <time>2019-05-13T15:42:10.000Z</time>
      </trkpt>
      <trkpt lat="46.20577" lon="4.60047">
        <ele>561</ele>
        <time>2019-05-13T15:42:14.000Z</time>
      </trkpt>
      <trkpt lat="46.20573" lon="4.60046">
        <ele>561.20001220703</ele>
        <time>2019-05-13T15:42:16.000Z</time>
      </trkpt>
      <trkpt lat="46.20554" lon="4.6004">
        <ele>561.40002441406</ele>
        <time>2019-05-13T15:42:24.000Z</time>
      </trkpt>
      <trkpt lat="46.20538" lon="4.60037">
        <ele>562</ele>
        <time>2019-05-13T15:42:31.000Z</time>
      </trkpt>
      <trkpt lat="46.20528" lon="4.60035">
        <ele>562.40002441406</ele>
        <time>2019-05-13T15:42:35.000Z</time>
      </trkpt>
      <trkpt lat="46.20516" lon="4.60035">
        <ele>563.40002441406</ele>
        <time>2019-05-13T15:42:40.000Z</time>
      </trkpt>
      <trkpt lat="46.20492" lon="4.60038">
        <ele>565.59997558594</ele>
        <time>2019-05-13T15:42:50.000Z</time>
      </trkpt>
      <trkpt lat="46.20474" lon="4.60048">
        <ele>568.40002441406</ele>
        <time>2019-05-13T15:42:58.000Z</time>
      </trkpt>
      <trkpt lat="46.20467" lon="4.60052">
        <ele>569.20001220703</ele>
        <time>2019-05-13T15:43:01.000Z</time>
      </trkpt>
      <trkpt lat="46.20459" lon="4.60059">
        <ele>570.79998779297</ele>
        <time>2019-05-13T15:43:05.000Z</time>
      </trkpt>
      <trkpt lat="46.20457" lon="4.60061">
        <ele>571.20001220703</ele>
        <time>2019-05-13T15:43:06.000Z</time>
      </trkpt>
      <trkpt lat="46.20455" lon="4.60063">
        <ele>571.59997558594</ele>
        <time>2019-05-13T15:43:07.000Z</time>
      </trkpt>
      <trkpt lat="46.20449" lon="4.60069">
        <ele>572.79998779297</ele>
        <time>2019-05-13T15:43:10.000Z</time>
      </trkpt>
      <trkpt lat="46.20443" lon="4.60075">
        <ele>574</ele>
        <time>2019-05-13T15:43:13.000Z</time>
      </trkpt>
      <trkpt lat="46.20437" lon="4.60081">
        <ele>575.20001220703</ele>
        <time>2019-05-13T15:43:16.000Z</time>
      </trkpt>
      <trkpt lat="46.20431" lon="4.60088">
        <ele>576</ele>
        <time>2019-05-13T15:43:19.000Z</time>
      </trkpt>
      <trkpt lat="46.20428" lon="4.6009">
        <ele>576.40002441406</ele>
        <time>2019-05-13T15:43:20.000Z</time>
      </trkpt>
      <trkpt lat="46.20418" lon="4.60098">
        <ele>577.20001220703</ele>
        <time>2019-05-13T15:43:25.000Z</time>
      </trkpt>
      <trkpt lat="46.20413" lon="4.60101">
        <ele>577.59997558594</ele>
        <time>2019-05-13T15:43:27.000Z</time>
      </trkpt>
      <trkpt lat="46.20407" lon="4.60105">
        <ele>578.20001220703</ele>
        <time>2019-05-13T15:43:30.000Z</time>
      </trkpt>
      <trkpt lat="46.20398" lon="4.60108">
        <ele>578.59997558594</ele>
        <time>2019-05-13T15:43:34.000Z</time>
      </trkpt>
      <trkpt lat="46.20381" lon="4.6011">
        <ele>579</ele>
        <time>2019-05-13T15:43:41.000Z</time>
      </trkpt>
      <trkpt lat="46.2037" lon="4.60109">
        <ele>579.40002441406</ele>
        <time>2019-05-13T15:43:46.000Z</time>
      </trkpt>
      <trkpt lat="46.20361" lon="4.60108">
        <ele>579.40002441406</ele>
        <time>2019-05-13T15:43:50.000Z</time>
      </trkpt>
      <trkpt lat="46.20352" lon="4.60108">
        <ele>579.79998779297</ele>
        <time>2019-05-13T15:43:54.000Z</time>
      </trkpt>
      <trkpt lat="46.20343" lon="4.60108">
        <ele>580.20001220703</ele>
        <time>2019-05-13T15:43:58.000Z</time>
      </trkpt>
      <trkpt lat="46.20327" lon="4.60113">
        <ele>581.59997558594</ele>
        <time>2019-05-13T15:44:05.000Z</time>
      </trkpt>
      <trkpt lat="46.20312" lon="4.60122">
        <ele>583.40002441406</ele>
        <time>2019-05-13T15:44:12.000Z</time>
      </trkpt>
      <trkpt lat="46.20306" lon="4.60128">
        <ele>583.40002441406</ele>
        <time>2019-05-13T15:44:15.000Z</time>
      </trkpt>
      <trkpt lat="46.20301" lon="4.60134">
        <ele>583.20001220703</ele>
        <time>2019-05-13T15:44:18.000Z</time>
      </trkpt>
      <trkpt lat="46.20292" lon="4.60145">
        <ele>583.20001220703</ele>
        <time>2019-05-13T15:44:23.000Z</time>
      </trkpt>
      <trkpt lat="46.2029" lon="4.60147">
        <ele>583.20001220703</ele>
        <time>2019-05-13T15:44:24.000Z</time>
      </trkpt>
      <trkpt lat="46.2028" lon="4.60162">
        <ele>583.40002441406</ele>
        <time>2019-05-13T15:44:30.000Z</time>
      </trkpt>
      <trkpt lat="46.20276" lon="4.60166">
        <ele>583.20001220703</ele>
        <time>2019-05-13T15:44:32.000Z</time>
      </trkpt>
      <trkpt lat="46.20274" lon="4.60168">
        <ele>583.40002441406</ele>
        <time>2019-05-13T15:44:33.000Z</time>
      </trkpt>
      <trkpt lat="46.20262" lon="4.60184">
        <ele>584.40002441406</ele>
        <time>2019-05-13T15:44:40.000Z</time>
      </trkpt>
      <trkpt lat="46.2026" lon="4.60187">
        <ele>584.59997558594</ele>
        <time>2019-05-13T15:44:41.000Z</time>
      </trkpt>
      <trkpt lat="46.20249" lon="4.602">
        <ele>585.40002441406</ele>
        <time>2019-05-13T15:44:47.000Z</time>
      </trkpt>
      <trkpt lat="46.20245" lon="4.60204">
        <ele>585.59997558594</ele>
        <time>2019-05-13T15:44:49.000Z</time>
      </trkpt>
      <trkpt lat="46.20235" lon="4.60218">
        <ele>586.40002441406</ele>
        <time>2019-05-13T15:44:55.000Z</time>
      </trkpt>
      <trkpt lat="46.20222" lon="4.60237">
        <ele>588.40002441406</ele>
        <time>2019-05-13T15:45:03.000Z</time>
      </trkpt>
      <trkpt lat="46.20218" lon="4.60243">
        <ele>589</ele>
        <time>2019-05-13T15:45:05.000Z</time>
      </trkpt>
      <trkpt lat="46.20212" lon="4.60253">
        <ele>589.79998779297</ele>
        <time>2019-05-13T15:45:09.000Z</time>
      </trkpt>
      <trkpt lat="46.20205" lon="4.60267">
        <ele>591</ele>
        <time>2019-05-13T15:45:14.000Z</time>
      </trkpt>
      <trkpt lat="46.20202" lon="4.60272">
        <ele>591</ele>
        <time>2019-05-13T15:45:16.000Z</time>
      </trkpt>
      <trkpt lat="46.20194" lon="4.60289">
        <ele>591.59997558594</ele>
        <time>2019-05-13T15:45:22.000Z</time>
      </trkpt>
      <trkpt lat="46.20191" lon="4.60294">
        <ele>591.79998779297</ele>
        <time>2019-05-13T15:45:24.000Z</time>
      </trkpt>
      <trkpt lat="46.20187" lon="4.60302">
        <ele>592.40002441406</ele>
        <time>2019-05-13T15:45:27.000Z</time>
      </trkpt>
      <trkpt lat="46.20182" lon="4.60314">
        <ele>593.20001220703</ele>
        <time>2019-05-13T15:45:31.000Z</time>
      </trkpt>
      <trkpt lat="46.20179" lon="4.60319">
        <ele>593.79998779297</ele>
        <time>2019-05-13T15:45:33.000Z</time>
      </trkpt>
      <trkpt lat="46.20175" lon="4.60328">
        <ele>594.20001220703</ele>
        <time>2019-05-13T15:45:36.000Z</time>
      </trkpt>
      <trkpt lat="46.20173" lon="4.6033">
        <ele>594.40002441406</ele>
        <time>2019-05-13T15:45:37.000Z</time>
      </trkpt>
      <trkpt lat="46.20164" lon="4.60349">
        <ele>596</ele>
        <time>2019-05-13T15:45:44.000Z</time>
      </trkpt>
      <trkpt lat="46.20158" lon="4.60359">
        <ele>596.79998779297</ele>
        <time>2019-05-13T15:45:48.000Z</time>
      </trkpt>
      <trkpt lat="46.20153" lon="4.6037">
        <ele>597.59997558594</ele>
        <time>2019-05-13T15:45:52.000Z</time>
      </trkpt>
      <trkpt lat="46.20146" lon="4.60383">
        <ele>598.79998779297</ele>
        <time>2019-05-13T15:45:57.000Z</time>
      </trkpt>
      <trkpt lat="46.20141" lon="4.60391">
        <ele>599.20001220703</ele>
        <time>2019-05-13T15:46:00.000Z</time>
      </trkpt>
      <trkpt lat="46.20138" lon="4.60397">
        <ele>599.79998779297</ele>
        <time>2019-05-13T15:46:02.000Z</time>
      </trkpt>
      <trkpt lat="46.20132" lon="4.60411">
        <ele>601</ele>
        <time>2019-05-13T15:46:07.000Z</time>
      </trkpt>
      <trkpt lat="46.20127" lon="4.60423">
        <ele>602.40002441406</ele>
        <time>2019-05-13T15:46:11.000Z</time>
      </trkpt>
      <trkpt lat="46.20125" lon="4.60432">
        <ele>603.59997558594</ele>
        <time>2019-05-13T15:46:14.000Z</time>
      </trkpt>
      <trkpt lat="46.2012" lon="4.60452">
        <ele>605.40002441406</ele>
        <time>2019-05-13T15:46:20.000Z</time>
      </trkpt>
      <trkpt lat="46.2012" lon="4.60459">
        <ele>606</ele>
        <time>2019-05-13T15:46:22.000Z</time>
      </trkpt>
      <trkpt lat="46.20119" lon="4.60481">
        <ele>608.20001220703</ele>
        <time>2019-05-13T15:46:28.000Z</time>
      </trkpt>
      <trkpt lat="46.20122" lon="4.60508">
        <ele>611.79998779297</ele>
        <time>2019-05-13T15:46:36.000Z</time>
      </trkpt>
      <trkpt lat="46.20122" lon="4.60512">
        <ele>612.20001220703</ele>
        <time>2019-05-13T15:46:37.000Z</time>
      </trkpt>
      <trkpt lat="46.20127" lon="4.60531">
        <ele>615.20001220703</ele>
        <time>2019-05-13T15:46:43.000Z</time>
      </trkpt>
      <trkpt lat="46.20131" lon="4.60546">
        <ele>616.59997558594</ele>
        <time>2019-05-13T15:46:48.000Z</time>
      </trkpt>
      <trkpt lat="46.20132" lon="4.60553">
        <ele>617</ele>
        <time>2019-05-13T15:46:50.000Z</time>
      </trkpt>
      <trkpt lat="46.20133" lon="4.6057">
        <ele>617.40002441406</ele>
        <time>2019-05-13T15:46:55.000Z</time>
      </trkpt>
      <trkpt lat="46.20133" lon="4.60581">
        <ele>617.40002441406</ele>
        <time>2019-05-13T15:46:58.000Z</time>
      </trkpt>
      <trkpt lat="46.20133" lon="4.60588">
        <ele>617.20001220703</ele>
        <time>2019-05-13T15:47:00.000Z</time>
      </trkpt>
      <trkpt lat="46.20129" lon="4.60607">
        <ele>616.59997558594</ele>
        <time>2019-05-13T15:47:06.000Z</time>
      </trkpt>
      <trkpt lat="46.20126" lon="4.60617">
        <ele>617</ele>
        <time>2019-05-13T15:47:09.000Z</time>
      </trkpt>
      <trkpt lat="46.2012" lon="4.60631">
        <ele>616.59997558594</ele>
        <time>2019-05-13T15:47:14.000Z</time>
      </trkpt>
      <trkpt lat="46.20112" lon="4.60646">
        <ele>615.79998779297</ele>
        <time>2019-05-13T15:47:20.000Z</time>
      </trkpt>
      <trkpt lat="46.2011" lon="4.60648">
        <ele>615.59997558594</ele>
        <time>2019-05-13T15:47:21.000Z</time>
      </trkpt>
      <trkpt lat="46.20103" lon="4.60659">
        <ele>615</ele>
        <time>2019-05-13T15:47:25.000Z</time>
      </trkpt>
      <trkpt lat="46.20094" lon="4.60671">
        <ele>614.79998779297</ele>
        <time>2019-05-13T15:47:30.000Z</time>
      </trkpt>
      <trkpt lat="46.20091" lon="4.60677">
        <ele>614.79998779297</ele>
        <time>2019-05-13T15:47:32.000Z</time>
      </trkpt>
      <trkpt lat="46.20083" lon="4.6069">
        <ele>614.59997558594</ele>
        <time>2019-05-13T15:47:37.000Z</time>
      </trkpt>
      <trkpt lat="46.20074" lon="4.60702">
        <ele>614.59997558594</ele>
        <time>2019-05-13T15:47:42.000Z</time>
      </trkpt>
      <trkpt lat="46.20066" lon="4.60714">
        <ele>615</ele>
        <time>2019-05-13T15:47:47.000Z</time>
      </trkpt>
      <trkpt lat="46.20053" lon="4.6073">
        <ele>616.40002441406</ele>
        <time>2019-05-13T15:47:54.000Z</time>
      </trkpt>
      <trkpt lat="46.20036" lon="4.60747">
        <ele>618</ele>
        <time>2019-05-13T15:48:03.000Z</time>
      </trkpt>
      <trkpt lat="46.20025" lon="4.60756">
        <ele>619</ele>
        <time>2019-05-13T15:48:08.000Z</time>
      </trkpt>
      <trkpt lat="46.20019" lon="4.6076">
        <ele>619.59997558594</ele>
        <time>2019-05-13T15:48:11.000Z</time>
      </trkpt>
      <trkpt lat="46.2001" lon="4.60764">
        <ele>620.20001220703</ele>
        <time>2019-05-13T15:48:15.000Z</time>
      </trkpt>
      <trkpt lat="46.20002" lon="4.60767">
        <ele>620.59997558594</ele>
        <time>2019-05-13T15:48:18.000Z</time>
      </trkpt>
      <trkpt lat="46.19994" lon="4.60772">
        <ele>621.20001220703</ele>
        <time>2019-05-13T15:48:22.000Z</time>
      </trkpt>
      <trkpt lat="46.19985" lon="4.60775">
        <ele>621.40002441406</ele>
        <time>2019-05-13T15:48:26.000Z</time>
      </trkpt>
      <trkpt lat="46.19983" lon="4.60776">
        <ele>621.59997558594</ele>
        <time>2019-05-13T15:48:27.000Z</time>
      </trkpt>
      <trkpt lat="46.19977" lon="4.60779">
        <ele>621.79998779297</ele>
        <time>2019-05-13T15:48:30.000Z</time>
      </trkpt>
      <trkpt lat="46.19966" lon="4.60786">
        <ele>621.59997558594</ele>
        <time>2019-05-13T15:48:35.000Z</time>
      </trkpt>
      <trkpt lat="46.19951" lon="4.60798">
        <ele>621.40002441406</ele>
        <time>2019-05-13T15:48:42.000Z</time>
      </trkpt>
      <trkpt lat="46.19947" lon="4.60802">
        <ele>621.40002441406</ele>
        <time>2019-05-13T15:48:44.000Z</time>
      </trkpt>
      <trkpt lat="46.19933" lon="4.60814">
        <ele>621.40002441406</ele>
        <time>2019-05-13T15:48:51.000Z</time>
      </trkpt>
      <trkpt lat="46.19923" lon="4.60824">
        <ele>622.40002441406</ele>
        <time>2019-05-13T15:48:56.000Z</time>
      </trkpt>
      <trkpt lat="46.1992" lon="4.60828">
        <ele>623.20001220703</ele>
        <time>2019-05-13T15:48:58.000Z</time>
      </trkpt>
      <trkpt lat="46.19906" lon="4.6084">
        <ele>625.79998779297</ele>
        <time>2019-05-13T15:49:05.000Z</time>
      </trkpt>
      <trkpt lat="46.199" lon="4.60846">
        <ele>627</ele>
        <time>2019-05-13T15:49:08.000Z</time>
      </trkpt>
      <trkpt lat="46.19894" lon="4.60852">
        <ele>628.20001220703</ele>
        <time>2019-05-13T15:49:11.000Z</time>
      </trkpt>
      <trkpt lat="46.19892" lon="4.60854">
        <ele>628.59997558594</ele>
        <time>2019-05-13T15:49:12.000Z</time>
      </trkpt>
      <trkpt lat="46.19878" lon="4.60866">
        <ele>629.59997558594</ele>
        <time>2019-05-13T15:49:19.000Z</time>
      </trkpt>
      <trkpt lat="46.19871" lon="4.60873">
        <ele>629.79998779297</ele>
        <time>2019-05-13T15:49:23.000Z</time>
      </trkpt>
      <trkpt lat="46.19867" lon="4.60877">
        <ele>630.20001220703</ele>
        <time>2019-05-13T15:49:25.000Z</time>
      </trkpt>
      <trkpt lat="46.19856" lon="4.60894">
        <ele>632.40002441406</ele>
        <time>2019-05-13T15:49:32.000Z</time>
      </trkpt>
      <trkpt lat="46.19855" lon="4.60896">
        <ele>632.79998779297</ele>
        <time>2019-05-13T15:49:33.000Z</time>
      </trkpt>
      <trkpt lat="46.19849" lon="4.60907">
        <ele>634.20001220703</ele>
        <time>2019-05-13T15:49:37.000Z</time>
      </trkpt>
      <trkpt lat="46.19845" lon="4.60915">
        <ele>635</ele>
        <time>2019-05-13T15:49:40.000Z</time>
      </trkpt>
      <trkpt lat="46.19841" lon="4.60924">
        <ele>635.79998779297</ele>
        <time>2019-05-13T15:49:43.000Z</time>
      </trkpt>
      <trkpt lat="46.19836" lon="4.60932">
        <ele>636.59997558594</ele>
        <time>2019-05-13T15:49:46.000Z</time>
      </trkpt>
      <trkpt lat="46.19835" lon="4.60935">
        <ele>636.79998779297</ele>
        <time>2019-05-13T15:49:47.000Z</time>
      </trkpt>
      <trkpt lat="46.19829" lon="4.60947">
        <ele>638</ele>
        <time>2019-05-13T15:49:51.000Z</time>
      </trkpt>
      <trkpt lat="46.19827" lon="4.60953">
        <ele>638.79998779297</ele>
        <time>2019-05-13T15:49:53.000Z</time>
      </trkpt>
      <trkpt lat="46.19823" lon="4.60959">
        <ele>639.20001220703</ele>
        <time>2019-05-13T15:49:55.000Z</time>
      </trkpt>
      <trkpt lat="46.19817" lon="4.60971">
        <ele>640.40002441406</ele>
        <time>2019-05-13T15:49:59.000Z</time>
      </trkpt>
      <trkpt lat="46.19807" lon="4.6099">
        <ele>642.79998779297</ele>
        <time>2019-05-13T15:50:06.000Z</time>
      </trkpt>
      <trkpt lat="46.19805" lon="4.60993">
        <ele>643.40002441406</ele>
        <time>2019-05-13T15:50:07.000Z</time>
      </trkpt>
      <trkpt lat="46.19797" lon="4.61006">
        <ele>645.59997558594</ele>
        <time>2019-05-13T15:50:12.000Z</time>
      </trkpt>
      <trkpt lat="46.19789" lon="4.61017">
        <ele>646.79998779297</ele>
        <time>2019-05-13T15:50:17.000Z</time>
      </trkpt>
      <trkpt lat="46.19781" lon="4.61025">
        <ele>646</ele>
        <time>2019-05-13T15:50:21.000Z</time>
      </trkpt>
      <trkpt lat="46.19767" lon="4.61039">
        <ele>644.59997558594</ele>
        <time>2019-05-13T15:50:28.000Z</time>
      </trkpt>
      <trkpt lat="46.19765" lon="4.6104">
        <ele>644.79998779297</ele>
        <time>2019-05-13T15:50:29.000Z</time>
      </trkpt>
      <trkpt lat="46.19748" lon="4.61053">
        <ele>644.40002441406</ele>
        <time>2019-05-13T15:50:37.000Z</time>
      </trkpt>
      <trkpt lat="46.19733" lon="4.61062">
        <ele>643.79998779297</ele>
        <time>2019-05-13T15:50:44.000Z</time>
      </trkpt>
      <trkpt lat="46.19728" lon="4.61064">
        <ele>643.59997558594</ele>
        <time>2019-05-13T15:50:46.000Z</time>
      </trkpt>
      <trkpt lat="46.19713" lon="4.61069">
        <ele>645.79998779297</ele>
        <time>2019-05-13T15:50:52.000Z</time>
      </trkpt>
      <trkpt lat="46.19708" lon="4.61071">
        <ele>646.40002441406</ele>
        <time>2019-05-13T15:50:54.000Z</time>
      </trkpt>
      <trkpt lat="46.19701" lon="4.61073">
        <ele>647.40002441406</ele>
        <time>2019-05-13T15:50:57.000Z</time>
      </trkpt>
      <trkpt lat="46.19687" lon="4.61077">
        <ele>649.40002441406</ele>
        <time>2019-05-13T15:51:03.000Z</time>
      </trkpt>
      <trkpt lat="46.19683" lon="4.61078">
        <ele>649.40002441406</ele>
        <time>2019-05-13T15:51:05.000Z</time>
      </trkpt>
      <trkpt lat="46.19674" lon="4.6108">
        <ele>649.40002441406</ele>
        <time>2019-05-13T15:51:09.000Z</time>
      </trkpt>
      <trkpt lat="46.19654" lon="4.61085">
        <ele>649.40002441406</ele>
        <time>2019-05-13T15:51:17.000Z</time>
      </trkpt>
      <trkpt lat="46.19652" lon="4.61085">
        <ele>649.40002441406</ele>
        <time>2019-05-13T15:51:18.000Z</time>
      </trkpt>
      <trkpt lat="46.19637" lon="4.61085">
        <ele>650.59997558594</ele>
        <time>2019-05-13T15:51:24.000Z</time>
      </trkpt>
      <trkpt lat="46.19627" lon="4.61084">
        <ele>652.20001220703</ele>
        <time>2019-05-13T15:51:28.000Z</time>
      </trkpt>
      <trkpt lat="46.19623" lon="4.61083">
        <ele>653</ele>
        <time>2019-05-13T15:51:30.000Z</time>
      </trkpt>
      <trkpt lat="46.19611" lon="4.61078">
        <ele>654.59997558594</ele>
        <time>2019-05-13T15:51:35.000Z</time>
      </trkpt>
      <trkpt lat="46.19607" lon="4.61076">
        <ele>655.20001220703</ele>
        <time>2019-05-13T15:51:37.000Z</time>
      </trkpt>
      <trkpt lat="46.19596" lon="4.61068">
        <ele>656.59997558594</ele>
        <time>2019-05-13T15:51:42.000Z</time>
      </trkpt>
      <trkpt lat="46.19592" lon="4.61064">
        <ele>657</ele>
        <time>2019-05-13T15:51:44.000Z</time>
      </trkpt>
      <trkpt lat="46.19583" lon="4.61054">
        <ele>657.59997558594</ele>
        <time>2019-05-13T15:51:49.000Z</time>
      </trkpt>
      <trkpt lat="46.1958" lon="4.61049">
        <ele>658</ele>
        <time>2019-05-13T15:51:51.000Z</time>
      </trkpt>
      <trkpt lat="46.1957" lon="4.61029">
        <ele>658.79998779297</ele>
        <time>2019-05-13T15:51:58.000Z</time>
      </trkpt>
      <trkpt lat="46.19565" lon="4.61015">
        <ele>660.59997558594</ele>
        <time>2019-05-13T15:52:03.000Z</time>
      </trkpt>
      <trkpt lat="46.19562" lon="4.61002">
        <ele>662</ele>
        <time>2019-05-13T15:52:07.000Z</time>
      </trkpt>
      <trkpt lat="46.19561" lon="4.60993">
        <ele>662.59997558594</ele>
        <time>2019-05-13T15:52:10.000Z</time>
      </trkpt>
      <trkpt lat="46.19558" lon="4.60981">
        <ele>663.79998779297</ele>
        <time>2019-05-13T15:52:14.000Z</time>
      </trkpt>
      <trkpt lat="46.19556" lon="4.60968">
        <ele>665</ele>
        <time>2019-05-13T15:52:18.000Z</time>
      </trkpt>
      <trkpt lat="46.19556" lon="4.60962">
        <ele>665.40002441406</ele>
        <time>2019-05-13T15:52:20.000Z</time>
      </trkpt>
      <trkpt lat="46.19555" lon="4.60955">
        <ele>665.79998779297</ele>
        <time>2019-05-13T15:52:22.000Z</time>
      </trkpt>
      <trkpt lat="46.19552" lon="4.60937">
        <ele>666.20001220703</ele>
        <time>2019-05-13T15:52:28.000Z</time>
      </trkpt>
      <trkpt lat="46.19552" lon="4.60933">
        <ele>666</ele>
        <time>2019-05-13T15:52:29.000Z</time>
      </trkpt>
      <trkpt lat="46.1955" lon="4.60915">
        <ele>666</ele>
        <time>2019-05-13T15:52:35.000Z</time>
      </trkpt>
      <trkpt lat="46.19549" lon="4.60909">
        <ele>666</ele>
        <time>2019-05-13T15:52:37.000Z</time>
      </trkpt>
      <trkpt lat="46.19547" lon="4.60896">
        <ele>665.79998779297</ele>
        <time>2019-05-13T15:52:41.000Z</time>
      </trkpt>
      <trkpt lat="46.19547" lon="4.60893">
        <ele>665.79998779297</ele>
        <time>2019-05-13T15:52:42.000Z</time>
      </trkpt>
      <trkpt lat="46.19543" lon="4.60874">
        <ele>666</ele>
        <time>2019-05-13T15:52:48.000Z</time>
      </trkpt>
      <trkpt lat="46.19542" lon="4.60868">
        <ele>666</ele>
        <time>2019-05-13T15:52:50.000Z</time>
      </trkpt>
      <trkpt lat="46.1954" lon="4.60853">
        <ele>666</ele>
        <time>2019-05-13T15:52:55.000Z</time>
      </trkpt>
      <trkpt lat="46.19539" lon="4.6085">
        <ele>666</ele>
        <time>2019-05-13T15:52:56.000Z</time>
      </trkpt>
      <trkpt lat="46.19534" lon="4.60824">
        <ele>665.40002441406</ele>
        <time>2019-05-13T15:53:04.000Z</time>
      </trkpt>
      <trkpt lat="46.19532" lon="4.60814">
        <ele>665.20001220703</ele>
        <time>2019-05-13T15:53:07.000Z</time>
      </trkpt>
      <trkpt lat="46.19528" lon="4.60801">
        <ele>664.79998779297</ele>
        <time>2019-05-13T15:53:11.000Z</time>
      </trkpt>
      <trkpt lat="46.19524" lon="4.60776">
        <ele>664.79998779297</ele>
        <time>2019-05-13T15:53:18.000Z</time>
      </trkpt>
      <trkpt lat="46.19521" lon="4.60766">
        <ele>665.20001220703</ele>
        <time>2019-05-13T15:53:21.000Z</time>
      </trkpt>
      <trkpt lat="46.19516" lon="4.60742">
        <ele>666.40002441406</ele>
        <time>2019-05-13T15:53:28.000Z</time>
      </trkpt>
      <trkpt lat="46.1951" lon="4.60711">
        <ele>667</ele>
        <time>2019-05-13T15:53:37.000Z</time>
      </trkpt>
      <trkpt lat="46.19509" lon="4.60708">
        <ele>667.20001220703</ele>
        <time>2019-05-13T15:53:38.000Z</time>
      </trkpt>
      <trkpt lat="46.19507" lon="4.60697">
        <ele>667.40002441406</ele>
        <time>2019-05-13T15:53:41.000Z</time>
      </trkpt>
      <trkpt lat="46.19504" lon="4.6068">
        <ele>668.40002441406</ele>
        <time>2019-05-13T15:53:46.000Z</time>
      </trkpt>
      <trkpt lat="46.19502" lon="4.6067">
        <ele>669</ele>
        <time>2019-05-13T15:53:49.000Z</time>
      </trkpt>
      <trkpt lat="46.19501" lon="4.60655">
        <ele>669.40002441406</ele>
        <time>2019-05-13T15:53:53.000Z</time>
      </trkpt>
      <trkpt lat="46.19499" lon="4.60629">
        <ele>670.59997558594</ele>
        <time>2019-05-13T15:54:00.000Z</time>
      </trkpt>
      <trkpt lat="46.19499" lon="4.60625">
        <ele>670.79998779297</ele>
        <time>2019-05-13T15:54:01.000Z</time>
      </trkpt>
      <trkpt lat="46.19499" lon="4.60608">
        <ele>671</ele>
        <time>2019-05-13T15:54:06.000Z</time>
      </trkpt>
      <trkpt lat="46.19498" lon="4.6059">
        <ele>671.20001220703</ele>
        <time>2019-05-13T15:54:11.000Z</time>
      </trkpt>
      <trkpt lat="46.19496" lon="4.60584">
        <ele>671.59997558594</ele>
        <time>2019-05-13T15:54:13.000Z</time>
      </trkpt>
      <trkpt lat="46.19483" lon="4.60564">
        <ele>674</ele>
        <time>2019-05-13T15:54:21.000Z</time>
      </trkpt>
      <trkpt lat="46.19481" lon="4.60563">
        <ele>674.40002441406</ele>
        <time>2019-05-13T15:54:22.000Z</time>
      </trkpt>
      <trkpt lat="46.19468" lon="4.60555">
        <ele>677</ele>
        <time>2019-05-13T15:54:28.000Z</time>
      </trkpt>
      <trkpt lat="46.19465" lon="4.60555">
        <ele>677.40002441406</ele>
        <time>2019-05-13T15:54:29.000Z</time>
      </trkpt>
      <trkpt lat="46.19458" lon="4.60562">
        <ele>679</ele>
        <time>2019-05-13T15:54:33.000Z</time>
      </trkpt>
      <trkpt lat="46.19452" lon="4.60583">
        <ele>680</ele>
        <time>2019-05-13T15:54:39.000Z</time>
      </trkpt>
      <trkpt lat="46.19449" lon="4.60598">
        <ele>680.59997558594</ele>
        <time>2019-05-13T15:54:43.000Z</time>
      </trkpt>
      <trkpt lat="46.19447" lon="4.60609">
        <ele>680.59997558594</ele>
        <time>2019-05-13T15:54:46.000Z</time>
      </trkpt>
      <trkpt lat="46.19446" lon="4.6062">
        <ele>680.79998779297</ele>
        <time>2019-05-13T15:54:49.000Z</time>
      </trkpt>
      <trkpt lat="46.19443" lon="4.60634">
        <ele>681.20001220703</ele>
        <time>2019-05-13T15:54:53.000Z</time>
      </trkpt>
      <trkpt lat="46.19442" lon="4.60641">
        <ele>681.40002441406</ele>
        <time>2019-05-13T15:54:55.000Z</time>
      </trkpt>
      <trkpt lat="46.19437" lon="4.60664">
        <ele>681.79998779297</ele>
        <time>2019-05-13T15:55:01.000Z</time>
      </trkpt>
      <trkpt lat="46.19433" lon="4.60678">
        <ele>682.59997558594</ele>
        <time>2019-05-13T15:55:05.000Z</time>
      </trkpt>
      <trkpt lat="46.19432" lon="4.60689">
        <ele>683</ele>
        <time>2019-05-13T15:55:08.000Z</time>
      </trkpt>
      <trkpt lat="46.1943" lon="4.607">
        <ele>683.40002441406</ele>
        <time>2019-05-13T15:55:11.000Z</time>
      </trkpt>
      <trkpt lat="46.19425" lon="4.60721">
        <ele>684.40002441406</ele>
        <time>2019-05-13T15:55:17.000Z</time>
      </trkpt>
      <trkpt lat="46.19423" lon="4.60732">
        <ele>684.59997558594</ele>
        <time>2019-05-13T15:55:20.000Z</time>
      </trkpt>
      <trkpt lat="46.1942" lon="4.60746">
        <ele>685</ele>
        <time>2019-05-13T15:55:24.000Z</time>
      </trkpt>
      <trkpt lat="46.19415" lon="4.60767">
        <ele>685.59997558594</ele>
        <time>2019-05-13T15:55:30.000Z</time>
      </trkpt>
      <trkpt lat="46.19415" lon="4.60771">
        <ele>685.59997558594</ele>
        <time>2019-05-13T15:55:31.000Z</time>
      </trkpt>
      <trkpt lat="46.19411" lon="4.60788">
        <ele>686.20001220703</ele>
        <time>2019-05-13T15:55:36.000Z</time>
      </trkpt>
      <trkpt lat="46.19409" lon="4.60799">
        <ele>686.79998779297</ele>
        <time>2019-05-13T15:55:39.000Z</time>
      </trkpt>
      <trkpt lat="46.19406" lon="4.60813">
        <ele>687.20001220703</ele>
        <time>2019-05-13T15:55:43.000Z</time>
      </trkpt>
      <trkpt lat="46.19403" lon="4.60827">
        <ele>687.79998779297</ele>
        <time>2019-05-13T15:55:47.000Z</time>
      </trkpt>
      <trkpt lat="46.19398" lon="4.60847">
        <ele>688.40002441406</ele>
        <time>2019-05-13T15:55:53.000Z</time>
      </trkpt>
      <trkpt lat="46.19397" lon="4.60854">
        <ele>688.59997558594</ele>
        <time>2019-05-13T15:55:55.000Z</time>
      </trkpt>
      <trkpt lat="46.19394" lon="4.60867">
        <ele>689.20001220703</ele>
        <time>2019-05-13T15:55:59.000Z</time>
      </trkpt>
      <trkpt lat="46.19391" lon="4.60885">
        <ele>689.59997558594</ele>
        <time>2019-05-13T15:56:04.000Z</time>
      </trkpt>
      <trkpt lat="46.1939" lon="4.60888">
        <ele>689.79998779297</ele>
        <time>2019-05-13T15:56:05.000Z</time>
      </trkpt>
      <trkpt lat="46.19387" lon="4.60904">
        <ele>690.20001220703</ele>
        <time>2019-05-13T15:56:10.000Z</time>
      </trkpt>
      <trkpt lat="46.19385" lon="4.6091">
        <ele>690.59997558594</ele>
        <time>2019-05-13T15:56:12.000Z</time>
      </trkpt>
      <trkpt lat="46.19383" lon="4.60924">
        <ele>691</ele>
        <time>2019-05-13T15:56:16.000Z</time>
      </trkpt>
      <trkpt lat="46.19382" lon="4.60927">
        <ele>691</ele>
        <time>2019-05-13T15:56:17.000Z</time>
      </trkpt>
      <trkpt lat="46.19376" lon="4.60954">
        <ele>692.40002441406</ele>
        <time>2019-05-13T15:56:25.000Z</time>
      </trkpt>
      <trkpt lat="46.19375" lon="4.60958">
        <ele>692.59997558594</ele>
        <time>2019-05-13T15:56:26.000Z</time>
      </trkpt>
      <trkpt lat="46.19371" lon="4.60974">
        <ele>693.79998779297</ele>
        <time>2019-05-13T15:56:31.000Z</time>
      </trkpt>
      <trkpt lat="46.19368" lon="4.60983">
        <ele>694.59997558594</ele>
        <time>2019-05-13T15:56:34.000Z</time>
      </trkpt>
      <trkpt lat="46.19366" lon="4.60989">
        <ele>695.20001220703</ele>
        <time>2019-05-13T15:56:36.000Z</time>
      </trkpt>
      <trkpt lat="46.19357" lon="4.61011">
        <ele>697.40002441406</ele>
        <time>2019-05-13T15:56:44.000Z</time>
      </trkpt>
      <trkpt lat="46.19347" lon="4.61029">
        <ele>699.40002441406</ele>
        <time>2019-05-13T15:56:51.000Z</time>
      </trkpt>
      <trkpt lat="46.19337" lon="4.61046">
        <ele>700.40002441406</ele>
        <time>2019-05-13T15:56:58.000Z</time>
      </trkpt>
      <trkpt lat="46.19334" lon="4.61051">
        <ele>700.59997558594</ele>
        <time>2019-05-13T15:57:00.000Z</time>
      </trkpt>
      <trkpt lat="46.19329" lon="4.61059">
        <ele>701</ele>
        <time>2019-05-13T15:57:03.000Z</time>
      </trkpt>
      <trkpt lat="46.19324" lon="4.61069">
        <ele>701.59997558594</ele>
        <time>2019-05-13T15:57:07.000Z</time>
      </trkpt>
      <trkpt lat="46.19312" lon="4.61089">
        <ele>703</ele>
        <time>2019-05-13T15:57:15.000Z</time>
      </trkpt>
      <trkpt lat="46.19299" lon="4.61109">
        <ele>704</ele>
        <time>2019-05-13T15:57:23.000Z</time>
      </trkpt>
      <trkpt lat="46.19289" lon="4.61127">
        <ele>705</ele>
        <time>2019-05-13T15:57:30.000Z</time>
      </trkpt>
      <trkpt lat="46.19283" lon="4.61134">
        <ele>705.40002441406</ele>
        <time>2019-05-13T15:57:33.000Z</time>
      </trkpt>
      <trkpt lat="46.19274" lon="4.61145">
        <ele>706.20001220703</ele>
        <time>2019-05-13T15:57:38.000Z</time>
      </trkpt>
      <trkpt lat="46.19272" lon="4.61148">
        <ele>706.40002441406</ele>
        <time>2019-05-13T15:57:39.000Z</time>
      </trkpt>
      <trkpt lat="46.19268" lon="4.61152">
        <ele>706.59997558594</ele>
        <time>2019-05-13T15:57:41.000Z</time>
      </trkpt>
      <trkpt lat="46.19262" lon="4.61159">
        <ele>707.40002441406</ele>
        <time>2019-05-13T15:57:44.000Z</time>
      </trkpt>
      <trkpt lat="46.19256" lon="4.61166">
        <ele>708.40002441406</ele>
        <time>2019-05-13T15:57:47.000Z</time>
      </trkpt>
      <trkpt lat="46.19254" lon="4.61168">
        <ele>708.59997558594</ele>
        <time>2019-05-13T15:57:48.000Z</time>
      </trkpt>
      <trkpt lat="46.19249" lon="4.61175">
        <ele>709.59997558594</ele>
        <time>2019-05-13T15:57:51.000Z</time>
      </trkpt>
      <trkpt lat="46.19243" lon="4.61185">
        <ele>710.59997558594</ele>
        <time>2019-05-13T15:57:55.000Z</time>
      </trkpt>
      <trkpt lat="46.1924" lon="4.6119">
        <ele>711</ele>
        <time>2019-05-13T15:57:57.000Z</time>
      </trkpt>
      <trkpt lat="46.19238" lon="4.61193">
        <ele>711.20001220703</ele>
        <time>2019-05-13T15:57:58.000Z</time>
      </trkpt>
      <trkpt lat="46.19234" lon="4.61207">
        <ele>712</ele>
        <time>2019-05-13T15:58:02.000Z</time>
      </trkpt>
      <trkpt lat="46.19233" lon="4.61213">
        <ele>712</ele>
        <time>2019-05-13T15:58:04.000Z</time>
      </trkpt>
      <trkpt lat="46.19231" lon="4.61216">
        <ele>712</ele>
        <time>2019-05-13T15:58:05.000Z</time>
      </trkpt>
      <trkpt lat="46.1923" lon="4.61223">
        <ele>712</ele>
        <time>2019-05-13T15:58:07.000Z</time>
      </trkpt>
      <trkpt lat="46.19228" lon="4.61237">
        <ele>711.79998779297</ele>
        <time>2019-05-13T15:58:11.000Z</time>
      </trkpt>
      <trkpt lat="46.19227" lon="4.61245">
        <ele>711.59997558594</ele>
        <time>2019-05-13T15:58:13.000Z</time>
      </trkpt>
      <trkpt lat="46.19224" lon="4.61268">
        <ele>711.20001220703</ele>
        <time>2019-05-13T15:58:20.000Z</time>
      </trkpt>
      <trkpt lat="46.19223" lon="4.61283">
        <ele>711</ele>
        <time>2019-05-13T15:58:24.000Z</time>
      </trkpt>
      <trkpt lat="46.19222" lon="4.61293">
        <ele>711.40002441406</ele>
        <time>2019-05-13T15:58:27.000Z</time>
      </trkpt>
      <trkpt lat="46.19222" lon="4.61299">
        <ele>711.59997558594</ele>
        <time>2019-05-13T15:58:29.000Z</time>
      </trkpt>
      <trkpt lat="46.19221" lon="4.61317">
        <ele>712</ele>
        <time>2019-05-13T15:58:34.000Z</time>
      </trkpt>
      <trkpt lat="46.1922" lon="4.61326">
        <ele>712.40002441406</ele>
        <time>2019-05-13T15:58:37.000Z</time>
      </trkpt>
      <trkpt lat="46.1922" lon="4.61347">
        <ele>713</ele>
        <time>2019-05-13T15:58:43.000Z</time>
      </trkpt>
      <trkpt lat="46.19219" lon="4.6135">
        <ele>713.20001220703</ele>
        <time>2019-05-13T15:58:44.000Z</time>
      </trkpt>
      <trkpt lat="46.19218" lon="4.61363">
        <ele>713.59997558594</ele>
        <time>2019-05-13T15:58:48.000Z</time>
      </trkpt>
      <trkpt lat="46.19218" lon="4.61372">
        <ele>713.79998779297</ele>
        <time>2019-05-13T15:58:51.000Z</time>
      </trkpt>
      <trkpt lat="46.19218" lon="4.61379">
        <ele>714.20001220703</ele>
        <time>2019-05-13T15:58:53.000Z</time>
      </trkpt>
      <trkpt lat="46.19218" lon="4.61399">
        <ele>715.20001220703</ele>
        <time>2019-05-13T15:58:59.000Z</time>
      </trkpt>
      <trkpt lat="46.19218" lon="4.61402">
        <ele>715.40002441406</ele>
        <time>2019-05-13T15:59:00.000Z</time>
      </trkpt>
      <trkpt lat="46.19219" lon="4.61422">
        <ele>716.20001220703</ele>
        <time>2019-05-13T15:59:06.000Z</time>
      </trkpt>
      <trkpt lat="46.19219" lon="4.61432">
        <ele>716.59997558594</ele>
        <time>2019-05-13T15:59:09.000Z</time>
      </trkpt>
      <trkpt lat="46.1922" lon="4.6145">
        <ele>717</ele>
        <time>2019-05-13T15:59:14.000Z</time>
      </trkpt>
      <trkpt lat="46.19221" lon="4.61456">
        <ele>717.40002441406</ele>
        <time>2019-05-13T15:59:16.000Z</time>
      </trkpt>
      <trkpt lat="46.19221" lon="4.61486">
        <ele>719.40002441406</ele>
        <time>2019-05-13T15:59:25.000Z</time>
      </trkpt>
      <trkpt lat="46.19221" lon="4.61489">
        <ele>719.59997558594</ele>
        <time>2019-05-13T15:59:26.000Z</time>
      </trkpt>
      <trkpt lat="46.19223" lon="4.6151">
        <ele>721</ele>
        <time>2019-05-13T15:59:32.000Z</time>
      </trkpt>
      <trkpt lat="46.19224" lon="4.61523">
        <ele>721.79998779297</ele>
        <time>2019-05-13T15:59:36.000Z</time>
      </trkpt>
      <trkpt lat="46.19225" lon="4.61537">
        <ele>722.40002441406</ele>
        <time>2019-05-13T15:59:40.000Z</time>
      </trkpt>
      <trkpt lat="46.19225" lon="4.61552">
        <ele>723.20001220703</ele>
        <time>2019-05-13T15:59:45.000Z</time>
      </trkpt>
      <trkpt lat="46.19228" lon="4.61574">
        <ele>724.40002441406</ele>
        <time>2019-05-13T15:59:52.000Z</time>
      </trkpt>
      <trkpt lat="46.19228" lon="4.61599">
        <ele>725.79998779297</ele>
        <time>2019-05-13T15:59:59.000Z</time>
      </trkpt>
      <trkpt lat="46.1923" lon="4.61627">
        <ele>727.40002441406</ele>
        <time>2019-05-13T16:00:07.000Z</time>
      </trkpt>
      <trkpt lat="46.19231" lon="4.61634">
        <ele>727.79998779297</ele>
        <time>2019-05-13T16:00:09.000Z</time>
      </trkpt>
      <trkpt lat="46.19232" lon="4.61654">
        <ele>729</ele>
        <time>2019-05-13T16:00:15.000Z</time>
      </trkpt>
      <trkpt lat="46.19232" lon="4.61657">
        <ele>729.20001220703</ele>
        <time>2019-05-13T16:00:16.000Z</time>
      </trkpt>
      <trkpt lat="46.19233" lon="4.61675">
        <ele>730.20001220703</ele>
        <time>2019-05-13T16:00:21.000Z</time>
      </trkpt>
      <trkpt lat="46.19233" lon="4.61678">
        <ele>730.40002441406</ele>
        <time>2019-05-13T16:00:22.000Z</time>
      </trkpt>
      <trkpt lat="46.19234" lon="4.61692">
        <ele>731.20001220703</ele>
        <time>2019-05-13T16:00:26.000Z</time>
      </trkpt>
      <trkpt lat="46.19234" lon="4.61702">
        <ele>731.79998779297</ele>
        <time>2019-05-13T16:00:29.000Z</time>
      </trkpt>
      <trkpt lat="46.19234" lon="4.61713">
        <ele>732.79998779297</ele>
        <time>2019-05-13T16:00:32.000Z</time>
      </trkpt>
      <trkpt lat="46.19235" lon="4.61729">
        <ele>733.79998779297</ele>
        <time>2019-05-13T16:00:37.000Z</time>
      </trkpt>
      <trkpt lat="46.19235" lon="4.61742">
        <ele>734.59997558594</ele>
        <time>2019-05-13T16:00:41.000Z</time>
      </trkpt>
      <trkpt lat="46.19236" lon="4.61763">
        <ele>735.79998779297</ele>
        <time>2019-05-13T16:00:47.000Z</time>
      </trkpt>
      <trkpt lat="46.19237" lon="4.61778">
        <ele>736.79998779297</ele>
        <time>2019-05-13T16:00:51.000Z</time>
      </trkpt>
      <trkpt lat="46.19237" lon="4.61789">
        <ele>737.59997558594</ele>
        <time>2019-05-13T16:00:54.000Z</time>
      </trkpt>
      <trkpt lat="46.19238" lon="4.618">
        <ele>738.59997558594</ele>
        <time>2019-05-13T16:00:57.000Z</time>
      </trkpt>
      <trkpt lat="46.19238" lon="4.6181">
        <ele>739</ele>
        <time>2019-05-13T16:01:00.000Z</time>
      </trkpt>
      <trkpt lat="46.19239" lon="4.61821">
        <ele>739.40002441406</ele>
        <time>2019-05-13T16:01:03.000Z</time>
      </trkpt>
      <trkpt lat="46.1924" lon="4.61828">
        <ele>739.79998779297</ele>
        <time>2019-05-13T16:01:05.000Z</time>
      </trkpt>
      <trkpt lat="46.1924" lon="4.61834">
        <ele>740</ele>
        <time>2019-05-13T16:01:07.000Z</time>
      </trkpt>
      <trkpt lat="46.1924" lon="4.61856">
        <ele>740.79998779297</ele>
        <time>2019-05-13T16:01:13.000Z</time>
      </trkpt>
      <trkpt lat="46.19241" lon="4.6186">
        <ele>741</ele>
        <time>2019-05-13T16:01:14.000Z</time>
      </trkpt>
      <trkpt lat="46.19242" lon="4.61881">
        <ele>742.40002441406</ele>
        <time>2019-05-13T16:01:20.000Z</time>
      </trkpt>
      <trkpt lat="46.19242" lon="4.61899">
        <ele>743</ele>
        <time>2019-05-13T16:01:25.000Z</time>
      </trkpt>
      <trkpt lat="46.19242" lon="4.61906">
        <ele>743.40002441406</ele>
        <time>2019-05-13T16:01:27.000Z</time>
      </trkpt>
      <trkpt lat="46.19244" lon="4.61934">
        <ele>744.59997558594</ele>
        <time>2019-05-13T16:01:35.000Z</time>
      </trkpt>
      <trkpt lat="46.19247" lon="4.61966">
        <ele>745.79998779297</ele>
        <time>2019-05-13T16:01:44.000Z</time>
      </trkpt>
      <trkpt lat="46.19251" lon="4.61991">
        <ele>746.20001220703</ele>
        <time>2019-05-13T16:01:50.000Z</time>
      </trkpt>
      <trkpt lat="46.19256" lon="4.62015">
        <ele>746.59997558594</ele>
        <time>2019-05-13T16:01:55.000Z</time>
      </trkpt>
      <trkpt lat="46.19259" lon="4.62027">
        <ele>746.79998779297</ele>
        <time>2019-05-13T16:01:57.000Z</time>
      </trkpt>
      <trkpt lat="46.19264" lon="4.62049">
        <ele>747.40002441406</ele>
        <time>2019-05-13T16:02:00.000Z</time>
      </trkpt>
      <trkpt lat="46.19268" lon="4.62066">
        <ele>748.20001220703</ele>
        <time>2019-05-13T16:02:02.000Z</time>
      </trkpt>
      <trkpt lat="46.19275" lon="4.62093">
        <ele>748.79998779297</ele>
        <time>2019-05-13T16:02:05.000Z</time>
      </trkpt>
      <trkpt lat="46.19284" lon="4.62135">
        <ele>749</ele>
        <time>2019-05-13T16:02:09.000Z</time>
      </trkpt>
    </trkseg>
  </trk>
</gpx>